Time;durP1;ratioP1;P1;durP2;ratioP2;P2;SDS_P1;SDS_P2;PMS_P1;PMS_P2;Temp;Humidity;BMP_temperature;BMP_pressure;BME280_temperature;BME280_humidity;BME280_pressure;Samples;Min_cycle;Max_cycle;Signal;HPM_P1;HPM_P2
2023/08/30 00:00:45;;;;;;;2.15;1.23;;;13.30;99.90;;;;;;5037300;28;20646;-86
2023/08/30 00:03:12;;;;;;;2.10;1.25;;;13.30;99.90;;;;;;5055673;28;20247;-86
2023/08/30 00:05:41;;;;;;;7.18;1.33;;;13.30;99.90;;;;;;5037703;28;20185;-86
2023/08/30 00:08:08;;;;;;;0.93;0.85;;;13.30;99.90;;;;;;5055452;28;20178;-86
2023/08/30 00:10:34;;;;;;;3.38;1.40;;;13.30;99.90;;;;;;5037435;28;20180;-85
2023/08/30 00:13:00;;;;;;;1.60;0.80;;;13.40;99.90;;;;;;5037360;28;20183;-84
2023/08/30 00:15:28;;;;;;;3.20;1.13;;;13.50;99.90;;;;;;5036953;28;20178;-85
2023/08/30 00:17:53;;;;;;;1.42;1.05;;;13.50;99.90;;;;;;5055108;28;20208;-85
2023/08/30 00:20:20;;;;;;;1.75;1.05;;;13.40;99.90;;;;;;5037259;28;20564;-85
2023/08/30 00:22:46;;;;;;;2.65;1.20;;;13.40;99.90;;;;;;5037127;28;20221;-86
2023/08/30 00:25:11;;;;;;;2.65;1.23;;;13.30;99.90;;;;;;5037254;28;20526;-86
2023/08/30 00:27:37;;;;;;;1.55;1.10;;;13.20;99.90;;;;;;5036918;28;20211;-85
2023/08/30 00:30:04;;;;;;;1.90;1.05;;;13.10;99.90;;;;;;5036892;28;20720;-86
2023/08/30 00:32:30;;;;;;;1.60;1.27;;;13.10;99.90;;;;;;5055157;28;20181;-86
2023/08/30 00:34:56;;;;;;;1.20;1.10;;;13.00;99.90;;;;;;5055010;28;20609;-86
2023/08/30 00:37:21;;;;;;;3.58;1.30;;;13.00;99.90;;;;;;5036910;28;20185;-85
2023/08/30 00:39:47;;;;;;;1.45;1.20;;;13.00;99.90;;;;;;5054860;28;20608;-84
2023/08/30 00:42:13;;;;;;;2.75;1.38;;;13.00;99.90;;;;;;5036847;28;20205;-86
2023/08/30 00:44:39;;;;;;;3.70;1.33;;;12.90;99.90;;;;;;5036918;28;20170;-86
2023/08/30 00:47:04;;;;;;;1.70;1.23;;;12.80;99.90;;;;;;5036451;28;20197;-86
2023/08/30 00:49:31;;;;;;;2.10;1.02;;;12.70;99.90;;;;;;5054729;28;20177;-86
2023/08/30 00:52:00;;;;;;;2.33;1.08;;;12.70;99.90;;;;;;5036589;28;20560;-86
2023/08/30 00:54:26;;;;;;;3.85;1.30;;;12.70;99.90;;;;;;5036694;28;20682;-86
2023/08/30 00:56:52;;;;;;;3.92;1.50;;;12.70;99.90;;;;;;5054302;28;20233;-85
2023/08/30 00:59:18;;;;;;;2.55;1.15;;;12.70;99.90;;;;;;5036569;28;20182;-85
2023/08/30 01:01:45;;;;;;;1.48;1.00;;;12.70;99.90;;;;;;5036383;28;20181;-86
2023/08/30 01:04:11;;;;;;;1.38;1.00;;;12.70;99.90;;;;;;5036866;28;20185;-88
2023/08/30 01:06:37;;;;;;;1.50;1.17;;;12.70;99.90;;;;;;5036266;28;20174;-86
2023/08/30 01:09:03;;;;;;;1.77;1.40;;;12.60;99.90;;;;;;5036373;28;20177;-86
2023/08/30 01:11:48;;;;;;;1.38;1.02;;;12.60;99.90;;;;;;5036352;28;20178;-86
2023/08/30 01:14:30;;;;;;;2.85;1.35;;;12.60;99.90;;;;;;5036476;28;20173;-85
2023/08/30 01:16:57;;;;;;;3.63;1.48;;;12.70;99.90;;;;;;5036122;28;20170;-86
2023/08/30 01:19:41;;;;;;;2.15;1.33;;;12.80;99.90;;;;;;5036107;28;20177;-86
2023/08/30 01:22:40;;;;;;;2.47;1.50;;;12.70;99.90;;;;;;5054078;28;20205;-86
2023/08/30 01:25:14;;;;;;;2.80;1.38;;;12.60;99.90;;;;;;5054021;28;20268;-85
2023/08/30 01:27:40;;;;;;;2.92;1.10;;;12.60;99.90;;;;;;5053932;28;20181;-86
2023/08/30 01:30:09;;;;;;;3.50;1.60;;;12.60;99.90;;;;;;5035744;28;20216;-86
2023/08/30 01:32:36;;;;;;;1.65;1.30;;;12.60;99.90;;;;;;5036073;28;20174;-86
2023/08/30 01:35:03;;;;;;;2.08;1.80;;;12.50;99.90;;;;;;5054027;28;20257;-86
2023/08/30 01:37:31;;;;;;;1.90;1.30;;;12.60;99.90;;;;;;5053812;28;20167;-85
2023/08/30 01:39:58;;;;;;;1.80;1.55;;;12.60;99.90;;;;;;5035687;28;20629;-86
2023/08/30 01:44:57;;;;;;;4.25;1.70;;;12.50;99.90;;;;;;5049440;28;20557;-85
2023/08/30 01:47:26;;;;;;;2.03;1.60;;;12.60;99.90;;;;;;5035938;28;20257;-85
2023/08/30 01:49:54;;;;;;;3.25;1.70;;;12.60;99.90;;;;;;5035774;28;20178;-85
2023/08/30 01:52:21;;;;;;;2.17;1.60;;;12.50;99.90;;;;;;5035814;28;20531;-86
2023/08/30 01:54:50;;;;;;;2.70;1.70;;;12.50;99.90;;;;;;5035749;28;20582;-85
2023/08/30 01:57:16;;;;;;;3.00;1.58;;;12.50;99.90;;;;;;5035777;28;20569;-85
2023/08/30 01:59:42;;;;;;;2.95;1.65;;;12.50;99.90;;;;;;5035207;28;20181;-86
2023/08/30 02:02:07;;;;;;;3.08;1.85;;;12.40;99.90;;;;;;5053598;28;20674;-86
2023/08/30 02:04:33;;;;;;;3.28;1.83;;;12.30;99.90;;;;;;5035850;28;20189;-84
2023/08/30 02:07:04;;;;;;;4.07;1.98;;;12.40;99.90;;;;;;5035625;28;20173;-85
2023/08/30 02:09:50;;;;;;;5.82;2.30;;;12.40;99.90;;;;;;5053434;28;20170;-85
2023/08/30 02:12:18;;;;;;;6.85;2.00;;;12.40;99.90;;;;;;5035813;28;20182;-85
2023/08/30 02:14:49;;;;;;;2.17;1.92;;;12.50;99.90;;;;;;5034833;28;20182;-85
2023/08/30 02:17:15;;;;;;;2.25;1.80;;;12.50;99.90;;;;;;5035678;28;20272;-85
2023/08/30 02:19:43;;;;;;;3.80;1.98;;;12.50;99.90;;;;;;5035500;28;20921;-85
2023/08/30 02:22:09;;;;;;;2.40;1.73;;;12.50;99.90;;;;;;5035525;28;20205;-85
2023/08/30 02:24:36;;;;;;;6.03;1.95;;;12.50;99.90;;;;;;5053347;28;20174;-86
2023/08/30 02:27:02;;;;;;;3.00;1.90;;;12.40;99.90;;;;;;5035628;28;20524;-85
2023/08/30 02:29:27;;;;;;;2.67;1.80;;;12.30;99.90;;;;;;5035143;28;20185;-86
2023/08/30 02:31:53;;;;;;;6.28;2.00;;;12.30;99.90;;;;;;5053141;28;20177;-85
2023/08/30 02:34:19;;;;;;;2.08;1.73;;;12.30;99.90;;;;;;5035487;28;20252;-86
2023/08/30 02:36:45;;;;;;;3.92;2.38;;;12.20;99.90;;;;;;5035389;28;20666;-85
2023/08/30 02:39:14;;;;;;;3.13;2.30;;;12.20;99.90;;;;;;5053212;28;20665;-85
2023/08/30 02:41:40;;;;;;;4.18;2.17;;;12.20;99.90;;;;;;5053176;28;20173;-86
2023/08/30 02:44:08;;;;;;;3.13;2.28;;;12.20;99.90;;;;;;5031709;28;20234;-86
2023/08/30 02:46:34;;;;;;;3.60;2.38;;;12.20;99.90;;;;;;5032043;28;20186;-85
2023/08/30 02:48:59;;;;;;;3.88;1.95;;;12.20;99.90;;;;;;5033166;28;20167;-85
2023/08/30 02:51:25;;;;;;;2.60;2.40;;;12.20;99.90;;;;;;5031813;28;20174;-86
2023/08/30 02:53:51;;;;;;;4.82;2.50;;;12.20;99.90;;;;;;5033272;28;20229;-85
2023/08/30 02:56:17;;;;;;;6.07;2.78;;;12.20;99.90;;;;;;5033206;28;20197;-85
2023/08/30 02:58:42;;;;;;;3.42;2.50;;;12.20;99.90;;;;;;5031794;28;20189;-85
2023/08/30 03:01:08;;;;;;;3.72;2.78;;;12.20;99.90;;;;;;5033129;28;20182;-85
2023/08/30 03:03:34;;;;;;;3.35;2.60;;;12.20;99.90;;;;;;5033104;28;20207;-85
2023/08/30 03:06:02;;;;;;;4.07;2.25;;;12.20;99.90;;;;;;5033055;28;20253;-85
2023/08/30 03:08:28;;;;;;;3.28;2.22;;;12.00;99.90;;;;;;5032022;28;20174;-85
2023/08/30 03:10:54;;;;;;;5.53;2.55;;;12.00;99.90;;;;;;5033602;28;20178;-85
2023/08/30 03:13:20;;;;;;;2.38;2.17;;;12.00;99.90;;;;;;5036320;28;20232;-85
2023/08/30 03:15:45;;;;;;;3.30;2.10;;;11.90;99.90;;;;;;5036566;28;20193;-85
2023/08/30 03:18:11;;;;;;;3.60;2.03;;;11.90;99.90;;;;;;5036535;28;20181;-85
2023/08/30 03:20:37;;;;;;;4.28;2.28;;;11.90;99.90;;;;;;5035108;28;20210;-85
2023/08/30 03:23:02;;;;;;;2.67;2.17;;;11.90;99.90;;;;;;5035741;28;20217;-86
2023/08/30 03:25:30;;;;;;;2.67;2.13;;;11.90;99.90;;;;;;5035325;28;20555;-86
2023/08/30 03:27:55;;;;;;;4.68;2.58;;;11.90;99.90;;;;;;5034744;28;20548;-85
2023/08/30 03:30:21;;;;;;;2.47;2.20;;;11.90;99.90;;;;;;5035002;28;20174;-85
2023/08/30 03:32:47;;;;;;;3.72;2.05;;;11.80;99.90;;;;;;5036212;28;20524;-85
2023/08/30 03:35:16;;;;;;;3.80;2.28;;;11.80;99.90;;;;;;5036230;28;20216;-86
2023/08/30 03:37:41;;;;;;;5.00;2.60;;;11.70;99.90;;;;;;5036273;28;20167;-85
2023/08/30 03:40:09;;;;;;;4.22;2.40;;;11.70;99.90;;;;;;5034860;28;20181;-85
2023/08/30 03:42:35;;;;;;;4.80;2.70;;;11.70;99.90;;;;;;5036679;28;20195;-84
2023/08/30 03:45:01;;;;;;;6.07;3.03;;;11.70;99.90;;;;;;5055684;28;20170;-86
2023/08/30 03:47:26;;;;;;;3.38;3.08;;;11.60;99.90;;;;;;5038230;28;20177;-86
2023/08/30 03:49:52;;;;;;;6.25;3.30;;;11.60;99.90;;;;;;5037895;28;20627;-85
2023/08/30 03:52:18;;;;;;;3.50;3.20;;;11.60;99.90;;;;;;5037957;28;20174;-85
2023/08/30 03:54:43;;;;;;;3.85;2.90;;;11.70;99.90;;;;;;5037938;28;20182;-85
2023/08/30 03:57:10;;;;;;;5.78;3.28;;;11.60;99.90;;;;;;5037834;28;20232;-86
2023/08/30 03:59:36;;;;;;;6.82;4.25;;;11.50;99.90;;;;;;5037616;28;20182;-85
2023/08/30 04:02:01;;;;;;;5.43;3.47;;;11.50;99.90;;;;;;5037743;28;20189;-85
2023/08/30 04:04:27;;;;;;;4.13;3.72;;;11.50;99.90;;;;;;5037557;28;20212;-85
2023/08/30 04:06:53;;;;;;;5.60;4.00;;;11.60;99.90;;;;;;5037708;28;20178;-85
2023/08/30 04:09:18;;;;;;;4.70;3.95;;;11.60;99.90;;;;;;5037584;28;20181;-85
2023/08/30 04:11:44;;;;;;;6.93;4.13;;;11.60;99.90;;;;;;5037815;28;20585;-85
2023/08/30 04:14:10;;;;;;;5.57;3.85;;;11.60;99.90;;;;;;5055230;28;20173;-85
2023/08/30 04:16:36;;;;;;;6.22;3.97;;;11.60;99.90;;;;;;5037210;28;20616;-86
2023/08/30 04:19:02;;;;;;;5.43;3.92;;;11.50;99.90;;;;;;5055242;28;20574;-86
2023/08/30 04:21:27;;;;;;;7.72;4.00;;;11.50;99.90;;;;;;5036893;28;20186;-85
2023/08/30 04:23:53;;;;;;;5.32;4.38;;;11.40;99.90;;;;;;5037395;28;20567;-85
2023/08/30 04:26:19;;;;;;;9.02;4.20;;;11.50;99.90;;;;;;5055098;28;20608;-86
2023/08/30 04:28:45;;;;;;;5.28;4.22;;;11.40;99.90;;;;;;5036983;28;20174;-86
2023/08/30 04:31:10;;;;;;;4.57;4.15;;;11.40;99.90;;;;;;5037156;28;20174;-86
2023/08/30 04:33:36;;;;;;;6.68;4.60;;;11.40;99.90;;;;;;5037173;28;20296;-85
2023/08/30 04:36:04;;;;;;;9.68;4.05;;;11.50;99.90;;;;;;5037295;28;20651;-85
2023/08/30 04:38:29;;;;;;;8.02;4.20;;;11.50;99.90;;;;;;5037247;28;20181;-85
2023/08/30 04:41:02;;;;;;;6.72;4.50;;;11.50;99.90;;;;;;5036979;28;20174;-86
2023/08/30 04:43:28;;;;;;;4.22;3.83;;;11.50;99.90;;;;;;5036412;28;20229;-86
2023/08/30 04:45:54;;;;;;;6.75;4.90;;;11.50;99.90;;;;;;5036942;28;20186;-85
2023/08/30 04:48:19;;;;;;;6.15;4.40;;;11.50;99.90;;;;;;5036785;28;20201;-85
2023/08/30 04:50:45;;;;;;;5.63;4.38;;;11.60;99.90;;;;;;5035509;28;20182;-85
2023/08/30 04:53:11;;;;;;;6.63;4.40;;;11.60;99.90;;;;;;5038822;28;20182;-85
2023/08/30 04:55:37;;;;;;;13.05;4.70;;;11.60;99.90;;;;;;5017034;28;20588;-86
2023/08/30 04:58:02;;;;;;;5.43;4.65;;;11.60;99.90;;;;;;5016936;28;20225;-85
2023/08/30 05:00:28;;;;;;;7.18;4.68;;;11.50;99.90;;;;;;5016796;28;20186;-85
2023/08/30 05:02:54;;;;;;;10.38;4.68;;;11.60;99.90;;;;;;5016687;28;20210;-85
2023/08/30 05:05:19;;;;;;;5.45;4.78;;;11.60;99.90;;;;;;5016719;28;20617;-85
2023/08/30 05:07:45;;;;;;;5.68;5.07;;;11.60;99.90;;;;;;5016702;28;20182;-86
2023/08/30 05:10:12;;;;;;;5.50;5.00;;;11.60;99.90;;;;;;5016588;28;20254;-85
2023/08/30 05:12:38;;;;;;;5.28;4.78;;;11.60;99.90;;;;;;5016709;28;20182;-85
2023/08/30 05:15:04;;;;;;;5.45;4.95;;;11.60;99.90;;;;;;5016664;28;20189;-85
2023/08/30 05:17:30;;;;;;;7.25;4.63;;;11.70;99.90;;;;;;5016509;28;20179;-86
2023/08/30 05:19:55;;;;;;;5.90;4.93;;;11.80;99.90;;;;;;5036579;28;20493;-86
2023/08/30 05:22:21;;;;;;;6.18;4.75;;;11.90;99.90;;;;;;5036134;28;20217;-86
2023/08/30 05:24:47;;;;;;;8.07;4.40;;;12.00;99.90;;;;;;5054138;28;20181;-85
2023/08/30 05:27:14;;;;;;;7.43;5.18;;;12.10;99.90;;;;;;5036087;28;20642;-85
2023/08/30 05:29:40;;;;;;;5.70;4.88;;;12.20;99.90;;;;;;5036221;28;20174;-84
2023/08/30 05:32:06;;;;;;;5.13;4.43;;;12.40;99.90;;;;;;5053943;28;20193;-85
2023/08/30 05:34:32;;;;;;;6.50;3.97;;;12.50;99.90;;;;;;5053580;28;20246;-86
2023/08/30 05:36:57;;;;;;;5.75;4.65;;;12.60;99.90;;;;;;5035794;28;20181;-85
2023/08/30 05:39:23;;;;;;;7.82;4.20;;;12.60;99.90;;;;;;5053859;28;20169;-86
2023/08/30 05:41:49;;;;;;;6.22;4.18;;;12.70;99.90;;;;;;5035985;28;20182;-86
2023/08/30 05:44:15;;;;;;;5.28;4.65;;;12.80;99.90;;;;;;5032580;28;20707;-85
2023/08/30 05:46:40;;;;;;;6.18;4.05;;;12.90;99.90;;;;;;5032593;28;20513;-86
2023/08/30 05:49:06;;;;;;;4.32;3.92;;;13.00;99.90;;;;;;5032673;28;20182;-86
2023/08/30 05:51:32;;;;;;;5.53;4.15;;;13.10;99.90;;;;;;5032303;28;20272;-85
2023/08/30 05:53:57;;;;;;;5.25;4.10;;;13.20;99.90;;;;;;5033870;28;20486;-86
2023/08/30 05:56:25;;;;;;;5.53;3.80;;;13.40;99.90;;;;;;5032567;28;20185;-86
2023/08/30 05:58:51;;;;;;;4.45;3.75;;;13.50;99.90;;;;;;5032621;28;20177;-86
2023/08/30 06:01:19;;;;;;;4.65;4.10;;;13.70;99.90;;;;;;5033721;28;20269;-86
2023/08/30 06:03:46;;;;;;;5.88;4.13;;;13.80;99.90;;;;;;5032661;28;20207;-86
2023/08/30 06:06:18;;;;;;;5.35;3.85;;;13.90;99.90;;;;;;5033475;28;20175;-86
2023/08/30 06:08:44;;;;;;;5.60;3.95;;;14.00;99.90;;;;;;5032580;28;20189;-86
2023/08/30 06:11:09;;;;;;;5.68;3.70;;;14.10;99.90;;;;;;5032384;28;20175;-86
2023/08/30 06:13:35;;;;;;;8.15;4.10;;;14.20;99.90;;;;;;5032484;28;20625;-85
2023/08/30 06:16:02;;;;;;;7.13;4.35;;;14.40;99.90;;;;;;5033738;28;20260;-87
2023/08/30 06:18:31;;;;;;;7.88;4.20;;;14.50;99.90;;;;;;5033788;28;20159;-85
2023/08/30 06:20:57;;;;;;;8.35;4.30;;;14.50;99.90;;;;;;5033143;28;20186;-86
2023/08/30 06:23:23;;;;;;;4.32;3.75;;;14.60;99.90;;;;;;5032433;28;20602;-86
2023/08/30 06:25:56;;;;;;;6.22;3.47;;;14.70;99.90;;;;;;5032476;28;20672;-86
2023/08/30 06:28:22;;;;;;;6.43;3.83;;;14.80;99.90;;;;;;5032255;28;20182;-85
2023/08/30 06:30:48;;;;;;;5.03;3.80;;;14.90;99.90;;;;;;5033507;28;20601;-86
2023/08/30 06:33:14;;;;;;;6.00;4.00;;;15.00;99.90;;;;;;5032089;28;20236;-86
2023/08/30 06:35:40;;;;;;;6.35;3.63;;;15.00;99.90;;;;;;5033094;28;20194;-87
2023/08/30 06:38:06;;;;;;;4.00;3.60;;;15.10;99.90;;;;;;5032125;28;20218;-86
2023/08/30 06:40:33;;;;;;;4.32;3.53;;;15.20;99.90;;;;;;5032060;28;20632;-86
2023/08/30 06:42:59;;;;;;;4.65;3.13;;;15.40;99.90;;;;;;5037235;28;20528;-87
2023/08/30 06:45:25;;;;;;;5.68;3.55;;;15.60;99.90;;;;;;5038219;28;20185;-85
2023/08/30 06:47:52;;;;;;;7.38;4.10;;;15.70;99.90;;;;;;5057209;28;20162;-88
2023/08/30 06:50:18;;;;;;;5.10;3.85;;;15.90;99.90;;;;;;5038790;28;21043;-88
2023/08/30 06:52:44;;;;;;;4.78;3.60;;;16.00;99.90;;;;;;5039104;28;20253;-86
2023/08/30 06:55:10;;;;;;;6.22;4.30;;;16.00;99.90;;;;;;5057020;28;20634;-88
2023/08/30 06:57:35;;;;;;;4.82;3.80;;;16.10;99.90;;;;;;5039082;28;20182;-87
2023/08/30 07:00:07;;;;;;;4.80;3.60;;;16.10;99.90;;;;;;5056966;28;20661;-86
2023/08/30 07:02:37;;;;;;;9.55;4.13;;;16.10;99.90;;;;;;5038770;28;20656;-84
2023/08/30 07:05:04;;;;;;;5.93;4.45;;;16.10;99.90;;;;;;5056562;28;20680;-86
2023/08/30 07:07:31;;;;;;;5.25;3.92;;;16.10;99.90;;;;;;5038752;28;20562;-86
2023/08/30 07:09:57;;;;;;;6.40;4.25;;;16.10;99.90;;;;;;5038779;28;20177;-86
2023/08/30 07:12:22;;;;;;;6.68;3.95;;;16.10;99.90;;;;;;5056672;28;20231;-87
2023/08/30 07:14:48;;;;;;;7.75;4.15;;;16.10;99.90;;;;;;5056587;28;20591;-86
2023/08/30 07:17:14;;;;;;;4.90;3.63;;;16.10;99.90;;;;;;5038582;28;20256;-86
2023/08/30 07:19:40;;;;;;;5.13;3.92;;;16.20;99.90;;;;;;5038606;28;20592;-85
2023/08/30 07:22:05;;;;;;;5.95;3.45;;;16.30;99.90;;;;;;5056053;28;20185;-86
2023/08/30 07:24:31;;;;;;;7.32;4.10;;;16.40;99.90;;;;;;5038636;28;20503;-87
2023/08/30 07:26:57;;;;;;;4.57;3.40;;;16.50;99.90;;;;;;5038644;28;20188;-86
2023/08/30 07:29:22;;;;;;;4.10;3.53;;;16.50;99.90;;;;;;5038588;28;20189;-87
2023/08/30 07:31:51;;;;;;;11.27;3.80;;;16.60;99.90;;;;;;5038364;28;20173;-87
2023/08/30 07:34:17;;;;;;;5.60;3.35;;;16.60;99.90;;;;;;5038369;28;20182;-87
2023/08/30 07:36:42;;;;;;;3.38;3.08;;;16.50;99.90;;;;;;5038103;28;20200;-86
2023/08/30 07:39:09;;;;;;;5.53;3.40;;;16.60;99.90;;;;;;5038248;28;20177;-87
2023/08/30 07:41:35;;;;;;;5.93;3.00;;;16.50;99.90;;;;;;5038195;28;20185;-86
2023/08/30 07:44:01;;;;;;;7.63;3.25;;;16.50;99.90;;;;;;5055969;28;20583;-86
2023/08/30 07:46:26;;;;;;;4.70;3.25;;;16.50;99.90;;;;;;5037821;28;20236;-86
2023/08/30 07:48:52;;;;;;;4.85;2.80;;;16.50;99.90;;;;;;5056038;28;20182;-86
2023/08/30 07:51:18;;;;;;;7.43;2.92;;;16.50;99.90;;;;;;5037663;28;20635;-87
2023/08/30 07:53:44;;;;;;;7.43;3.40;;;16.60;99.90;;;;;;5055744;28;20170;-85
2023/08/30 07:56:09;;;;;;;4.72;3.50;;;16.70;99.90;;;;;;5054852;28;20177;-86
2023/08/30 07:58:35;;;;;;;6.60;3.67;;;16.80;99.90;;;;;;5037958;28;20212;-85
2023/08/30 08:01:01;;;;;;;5.35;3.72;;;17.00;99.90;;;;;;5055805;28;20177;-87
2023/08/30 08:03:27;;;;;;;5.63;3.50;;;17.00;99.90;;;;;;5037759;28;20225;-86
2023/08/30 08:05:53;;;;;;;5.68;3.90;;;17.00;99.90;;;;;;5037346;28;20182;-85
2023/08/30 08:08:19;;;;;;;4.70;3.25;;;17.00;99.90;;;;;;5055413;28;20170;-86
2023/08/30 08:10:45;;;;;;;5.65;3.33;;;17.00;99.90;;;;;;5037617;28;20166;-85
2023/08/30 08:13:12;;;;;;;4.70;3.15;;;16.90;99.90;;;;;;5055239;28;20170;-85
2023/08/30 08:15:38;;;;;;;4.07;3.00;;;16.90;99.90;;;;;;5055416;28;20231;-85
2023/08/30 08:18:04;;;;;;;7.43;3.20;;;16.90;99.90;;;;;;5037495;28;20616;-86
2023/08/30 08:20:30;;;;;;;4.95;3.03;;;16.90;99.90;;;;;;5037136;28;20228;-86
2023/08/30 08:22:56;;;;;;;7.55;3.55;;;17.00;99.90;;;;;;5037070;28;20259;-86
2023/08/30 08:25:23;;;;;;;6.15;2.72;;;17.00;99.90;;;;;;5055455;28;20181;-85
2023/08/30 08:27:50;;;;;;;5.60;2.72;;;17.00;99.90;;;;;;5037421;28;20178;-87
2023/08/30 08:30:16;;;;;;;3.45;2.55;;;17.00;99.90;;;;;;5037265;28;20177;-86
2023/08/30 08:32:42;;;;;;;3.75;2.42;;;17.10;99.90;;;;;;5037350;28;20261;-85
2023/08/30 08:35:08;;;;;;;5.60;2.50;;;17.20;99.90;;;;;;5037050;28;20189;-85
2023/08/30 08:37:35;;;;;;;3.22;2.22;;;17.30;99.90;;;;;;5036806;28;20178;-86
2023/08/30 08:40:08;;;;;;;4.70;1.90;;;17.40;99.90;;;;;;5055345;28;20195;-86
2023/08/30 08:42:39;;;;;;;5.75;1.90;;;17.40;99.90;;;;;;5037924;28;20198;-95
2023/08/30 08:45:06;;;;;;;5.38;1.80;;;17.50;99.90;;;;;;5039985;28;20192;-89
2023/08/30 08:47:33;;;;;;;3.40;2.05;;;17.60;99.90;;;;;;5038734;28;20204;-92
2023/08/30 08:50:00;;;;;;;3.13;1.75;;;17.70;99.90;;;;;;5056079;28;20219;-91
2023/08/30 08:52:26;;;;;;;2.65;1.70;;;17.80;99.90;;;;;;5038299;28;20264;-91
2023/08/30 08:54:52;;;;;;;3.08;1.95;;;17.90;99.90;;;;;;5037973;28;20642;-90
2023/08/30 08:57:19;;;;;;;4.78;2.05;;;18.00;99.90;;;;;;5037659;28;20520;-92
2023/08/30 08:59:45;;;;;;;2.45;1.52;;;18.00;99.90;;;;;;5037491;28;20691;-91
2023/08/30 09:02:13;;;;;;;4.22;1.30;;;18.00;99.90;;;;;;5037867;28;20193;-90
2023/08/30 09:04:40;;;;;;;5.63;1.80;;;18.10;99.90;;;;;;5038038;28;20182;-90
2023/08/30 09:07:05;;;;;;;2.80;1.50;;;18.20;99.90;;;;;;5037773;28;20178;-90
2023/08/30 09:09:32;;;;;;;5.10;3.30;;;18.30;99.90;;;;;;5037466;28;20232;-91
2023/08/30 09:11:58;;;;;;;7.30;2.75;;;18.40;99.90;;;;;;5037562;28;20178;-90
2023/08/30 09:14:24;;;;;;;3.45;3.15;;;18.60;99.90;;;;;;5037662;28;20189;-90
2023/08/30 09:17:02;;;;;;;5.80;3.40;;;18.70;99.90;;;;;;5037697;28;20227;-91
2023/08/30 09:19:34;;;;;;;4.82;2.95;;;18.80;99.90;;;;;;5055319;28;20198;-91
2023/08/30 09:22:00;;;;;;;5.70;3.33;;;19.00;99.90;;;;;;5037276;28;20208;-90
2023/08/30 09:24:36;;;;;;;4.13;2.60;;;19.10;99.90;;;;;;5037454;28;20221;-91
2023/08/30 09:27:03;;;;;;;2.17;1.90;;;19.10;99.90;;;;;;5037093;28;20166;-90
2023/08/30 09:29:33;;;;;;;3.75;2.10;;;19.10;99.90;;;;;;5017740;28;20178;-91
2023/08/30 09:32:01;;;;;;;4.47;1.90;;;19.10;99.90;;;;;;5017635;28;20221;-90
2023/08/30 09:34:27;;;;;;;4.45;1.83;;;19.10;99.90;;;;;;5017590;28;20621;-91
2023/08/30 09:36:53;;;;;;;4.13;1.65;;;19.00;99.90;;;;;;5017277;28;20213;-90
2023/08/30 09:39:19;;;;;;;3.63;2.17;;;19.10;99.90;;;;;;5017395;28;20183;-90
2023/08/30 09:41:47;;;;;;;4.00;1.58;;;19.10;99.90;;;;;;5017589;28;20620;-91
2023/08/30 09:44:14;;;;;;;3.47;1.50;;;19.30;99.90;;;;;;5034649;28;20233;-93
2023/08/30 09:46:54;;;;;;;2.30;1.58;;;19.40;99.90;;;;;;5017435;28;20178;-91
2023/08/30 09:49:23;;;;;;;3.10;1.40;;;19.40;99.90;;;;;;5017227;28;20174;-89
2023/08/30 09:51:51;;;;;;;3.30;1.35;;;19.50;99.90;;;;;;5034605;28;20190;-89
2023/08/30 09:54:25;;;;;;;5.43;1.30;;;19.50;99.90;;;;;;5017126;28;20206;-90
2023/08/30 09:56:53;;;;;;;1.30;0.85;;;19.60;99.90;;;;;;5033777;28;20189;-89
2023/08/30 09:59:22;;;;;;;2.08;1.02;;;19.70;99.90;;;;;;5053313;28;20189;-91
2023/08/30 10:01:48;;;;;;;1.80;1.10;;;19.70;99.90;;;;;;5036781;28;20243;-90
2023/08/30 10:04:15;;;;;;;5.72;1.27;;;19.70;99.90;;;;;;5036886;28;20248;-89
2023/08/30 10:06:41;;;;;;;8.85;1.45;;;19.80;99.90;;;;;;5054467;28;20617;-90
2023/08/30 10:09:15;;;;;;;2.45;1.02;;;19.90;99.90;;;;;;5054672;28;20312;-91
2023/08/30 10:11:40;;;;;;;0.85;0.70;;;19.90;99.90;;;;;;5036760;28;20273;-89
2023/08/30 10:14:07;;;;;;;1.67;1.10;;;19.90;99.90;;;;;;5036563;28;20213;-90
2023/08/30 10:16:55;;;;;;;2.58;1.13;;;20.00;99.90;;;;;;5037079;28;20180;-89
2023/08/30 10:19:26;;;;;;;2.72;1.00;;;20.00;99.90;;;;;;5037959;28;20173;-90
2023/08/30 10:22:08;;;;;;;1.13;0.88;;;20.00;99.90;;;;;;5058324;28;20181;-90
2023/08/30 10:24:45;;;;;;;1.50;1.20;;;20.00;99.90;;;;;;5040972;28;20190;-89
2023/08/30 10:27:13;;;;;;;2.05;1.20;;;19.90;99.90;;;;;;5040249;28;20166;-91
2023/08/30 10:29:41;;;;;;;6.15;1.88;;;19.90;99.90;;;;;;5040480;28;20174;-93
2023/08/30 10:32:07;;;;;;;1.48;1.27;;;19.90;99.90;;;;;;5040335;28;20206;-90
2023/08/30 10:34:34;;;;;;;1.50;1.13;;;19.90;99.90;;;;;;5040734;28;20181;-90
2023/08/30 10:37:01;;;;;;;3.80;1.20;;;20.00;99.90;;;;;;5040453;28;20170;-90
2023/08/30 10:39:39;;;;;;;1.63;1.40;;;20.10;99.90;;;;;;5058208;28;20680;-89
2023/08/30 10:42:23;;;;;;;3.13;1.80;;;20.20;99.90;;;;;;5040300;28;20588;-88
2023/08/30 10:44:57;;;;;;;3.15;1.52;;;20.30;99.90;;;;;;5057999;28;20232;-91
2023/08/30 10:47:30;;;;;;;3.22;1.00;;;20.50;99.90;;;;;;5040080;28;20264;-90
2023/08/30 10:49:59;;;;;;;1.73;1.42;;;20.50;99.90;;;;;;5039410;28;20186;-89
2023/08/30 10:52:30;;;;;;;2.25;1.20;;;20.50;99.90;;;;;;5039961;28;20177;-89
2023/08/30 10:55:07;;;;;;;4.13;1.10;;;20.30;99.90;;;;;;5056596;28;20213;-87
2023/08/30 10:57:33;;;;;;;2.95;1.17;;;20.30;99.90;;;;;;5038280;28;20323;-86
2023/08/30 11:00:20;;;;;;;3.65;1.30;;;20.30;99.90;;;;;;5056381;28;20223;-89
2023/08/30 11:02:50;;;;;;;3.13;1.30;;;20.30;99.90;;;;;;5039745;28;20205;-89
2023/08/30 11:05:17;;;;;;;2.78;1.40;;;20.30;99.90;;;;;;5039847;28;20174;-88
2023/08/30 11:07:43;;;;;;;3.40;1.88;;;20.40;99.90;;;;;;5039740;28;20527;-86
2023/08/30 11:10:10;;;;;;;3.42;2.35;;;20.50;99.90;;;;;;5038923;28;20204;-89
2023/08/30 11:12:35;;;;;;;4.15;2.00;;;20.70;99.90;;;;;;5039550;28;20177;-92
2023/08/30 11:15:02;;;;;;;7.88;2.40;;;20.70;99.90;;;;;;5039658;28;20182;-87
2023/08/30 11:17:28;;;;;;;3.95;2.20;;;20.80;99.90;;;;;;5039627;28;20287;-88
2023/08/30 11:20:06;;;;;;;3.45;2.20;;;20.70;99.90;;;;;;5039694;28;20228;-90
2023/08/30 11:22:32;;;;;;;3.40;2.10;;;20.60;99.90;;;;;;5039865;28;20220;-89
2023/08/30 11:24:58;;;;;;;4.60;2.92;;;20.70;99.90;;;;;;5038697;28;20188;-89
2023/08/30 11:27:24;;;;;;;4.18;2.70;;;20.70;99.90;;;;;;5039440;28;20184;-92
2023/08/30 11:29:58;;;;;;;3.97;3.35;;;20.60;99.90;;;;;;5039751;28;20512;-88
2023/08/30 11:32:24;;;;;;;4.35;3.20;;;20.70;99.90;;;;;;5038478;28;20174;-89
2023/08/30 11:34:59;;;;;;;5.10;2.88;;;20.80;99.90;;;;;;5038091;28;20185;-89
2023/08/30 11:37:27;;;;;;;4.20;2.90;;;20.90;99.90;;;;;;5052295;28;20166;-90
2023/08/30 11:39:55;;;;;;;5.53;3.20;;;20.90;99.90;;;;;;5037488;28;20201;-89
2023/08/30 11:42:21;;;;;;;3.33;2.90;;;20.90;99.90;;;;;;5038806;28;20185;-88
2023/08/30 11:44:47;;;;;;;3.92;2.70;;;20.90;99.90;;;;;;5038661;28;20703;-89
2023/08/30 11:47:26;;;;;;;4.78;2.70;;;21.10;99.90;;;;;;5038926;28;20201;-94
2023/08/30 11:49:56;;;;;;;3.72;2.50;;;21.10;99.90;;;;;;5039193;28;20561;-89
2023/08/30 11:52:23;;;;;;;4.68;3.00;;;21.30;99.90;;;;;;5039010;28;20205;-88
2023/08/30 11:54:50;;;;;;;5.00;2.30;;;21.30;99.90;;;;;;5039491;28;20216;-89
2023/08/30 11:57:16;;;;;;;4.97;2.28;;;21.30;99.90;;;;;;5039178;28;20185;-90
2023/08/30 11:59:54;;;;;;;3.45;2.50;;;21.40;99.90;;;;;;5057074;28;20226;-90
2023/08/30 12:02:21;;;;;;;2.75;2.45;;;21.50;99.90;;;;;;5039558;28;20178;-90
2023/08/30 12:04:47;;;;;;;2.42;2.22;;;21.50;99.90;;;;;;5039247;28;20220;-91
2023/08/30 12:07:26;;;;;;;4.07;2.40;;;21.60;99.90;;;;;;5056641;28;20173;-91
2023/08/30 12:09:52;;;;;;;4.35;2.50;;;21.60;99.90;;;;;;5038659;28;20621;-88
2023/08/30 12:12:17;;;;;;;2.65;2.10;;;21.50;99.90;;;;;;5038568;28;20223;-87
2023/08/30 12:14:43;;;;;;;4.38;2.20;;;21.50;99.90;;;;;;5038503;28;20182;-89
2023/08/30 12:17:12;;;;;;;4.70;2.00;;;21.40;99.90;;;;;;5020071;28;20179;-89
2023/08/30 12:19:40;;;;;;;3.00;1.98;;;21.30;99.90;;;;;;5038002;28;20507;-93
2023/08/30 12:22:07;;;;;;;3.97;2.20;;;21.00;99.90;;;;;;5020035;28;20183;-94
2023/08/30 12:24:46;;;;;;;4.45;2.47;;;21.00;99.90;;;;;;5033681;28;20186;-89
2023/08/30 12:27:15;;;;;;;6.57;1.85;;;20.80;99.90;;;;;;5038619;28;20181;-93
2023/08/30 12:29:50;;;;;;;3.35;2.20;;;20.70;99.90;;;;;;5038433;28;20272;-92
2023/08/30 12:32:16;;;;;;;1.90;1.70;;;20.80;99.90;;;;;;5038545;28;20261;-91
2023/08/30 12:34:42;;;;;;;5.60;2.60;;;20.80;99.90;;;;;;5039542;28;20208;-92
2023/08/30 12:37:07;;;;;;;3.30;2.75;;;21.00;99.90;;;;;;5039903;28;20178;-94
2023/08/30 12:39:33;;;;;;;6.50;3.40;;;21.00;99.90;;;;;;5042094;28;20174;-96
2023/08/30 12:42:00;;;;;;;4.75;2.92;;;21.10;99.90;;;;;;5061443;28;20182;-90
2023/08/30 12:44:26;;;;;;;4.97;3.00;;;21.10;99.90;;;;;;5062754;28;20226;-93
2023/08/30 12:46:55;;;;;;;4.85;2.70;;;21.20;99.90;;;;;;5041724;28;20205;-96
2023/08/30 12:49:20;;;;;;;4.07;2.78;;;21.10;99.90;;;;;;5042404;28;20184;-96